CheckWX is a tool to help pilots better visualize weather data.  It is not intended as a substitute for an official pre-flight weather briefing.

10:49:43 UTC

PAMD METAR
Middleton Island Airport
Middleton Island, Alaska, USA
Current

59 mins ago

PAMD 220951Z AUTO 31005KT 10SM FEW014 OVC030 11/09 A2955 RMK AO2 SLP999 T01060089
Observed
Sep-22 @ 09:51 UTC
Wind
  • 310° at 5 KTS
Visibility
10 SM
Flight Rules
MVFR
Cloud Levels
  • Few at 1,400' AGL
  • Overcast at 3,000' AGL
Temperature
11°C / 52°F
Dewpoint
C / 48°F
Humidity
88%
Altimeter
29.55" Hg
Pressure
1000.72 hPa
Previous

1 hour ago

PAMD 220930Z AUTO 31007KT 10SM SCT014 OVC026 11/09 A2955 RMK AO2
Observed
Sep-22 @ 09:30 UTC
Wind
  • 310° at 7 KTS
Visibility
10 SM
Flight Rules
MVFR
Cloud Levels
  • Scattered at 1,400' AGL
  • Overcast at 2,600' AGL
Temperature
11°C / 52°F
Dewpoint
C / 48°F
Humidity
88%
Altimeter
29.55" Hg
Pressure
1000.72 hPa
Previous

2 hours ago

PAMD 220858Z AUTO VRB04KT 10SM BKN014 OVC040 11/09 A2954 RMK AO2
Observed
Sep-22 @ 08:58 UTC
Wind
  • Variable at 4 KTS
Visibility
10 SM
Flight Rules
MVFR
Cloud Levels
  • Broken at 1,400' AGL
  • Overcast at 4,000' AGL
Temperature
11°C / 52°F
Dewpoint
C / 48°F
Humidity
88%
Altimeter
29.54" Hg
Pressure
1000.32 hPa